sensor_id;sensor_type;location;lat;lon;timestamp;P1;durP1;ratioP1;P2;durP2;ratioP2
66270;SDS011;53063;39.614;8.814;2024-02-23T00:01:32;13.35;;;5.05;;
66270;SDS011;53063;39.614;8.814;2024-02-23T00:03:57;8.82;;;5.05;;
66270;SDS011;53063;39.614;8.814;2024-02-23T00:06:23;11.25;;;5.20;;
66270;SDS011;53063;39.614;8.814;2024-02-23T00:08:53;10.00;;;4.63;;
66270;SDS011;53063;39.614;8.814;2024-02-23T00:11:20;12.43;;;5.43;;
66270;SDS011;53063;39.614;8.814;2024-02-23T00:13:46;11.50;;;5.45;;
66270;SDS011;53063;39.614;8.814;2024-02-23T00:16:12;10.52;;;5.15;;
66270;SDS011;53063;39.614;8.814;2024-02-23T00:18:38;19.65;;;6.00;;
66270;SDS011;53063;39.614;8.814;2024-02-23T00:21:04;9.48;;;4.57;;
66270;SDS011;53063;39.614;8.814;2024-02-23T00:23:30;11.45;;;5.00;;
66270;SDS011;53063;39.614;8.814;2024-02-23T00:25:56;11.35;;;5.10;;
66270;SDS011;53063;39.614;8.814;2024-02-23T00:28:22;12.00;;;5.45;;
66270;SDS011;53063;39.614;8.814;2024-02-23T00:30:48;15.38;;;4.78;;
66270;SDS011;53063;39.614;8.814;2024-02-23T00:33:14;12.23;;;5.00;;
66270;SDS011;53063;39.614;8.814;2024-02-23T00:35:40;11.68;;;5.15;;
66270;SDS011;53063;39.614;8.814;2024-02-23T00:38:06;11.13;;;4.80;;
66270;SDS011;53063;39.614;8.814;2024-02-23T00:40:32;10.18;;;4.70;;
66270;SDS011;53063;39.614;8.814;2024-02-23T00:42:58;9.05;;;4.50;;
66270;SDS011;53063;39.614;8.814;2024-02-23T00:45:26;12.02;;;4.55;;
66270;SDS011;53063;39.614;8.814;2024-02-23T00:47:52;9.80;;;4.55;;
66270;SDS011;53063;39.614;8.814;2024-02-23T00:50:17;9.13;;;4.15;;
66270;SDS011;53063;39.614;8.814;2024-02-23T00:52:44;10.50;;;4.80;;
66270;SDS011;53063;39.614;8.814;2024-02-23T00:55:09;12.57;;;5.15;;
66270;SDS011;53063;39.614;8.814;2024-02-23T00:57:36;10.30;;;4.53;;
66270;SDS011;53063;39.614;8.814;2024-02-23T01:00:03;12.48;;;5.07;;
66270;SDS011;53063;39.614;8.814;2024-02-23T01:02:34;13.23;;;4.85;;
66270;SDS011;53063;39.614;8.814;2024-02-23T01:05:00;11.32;;;4.18;;
66270;SDS011;53063;39.614;8.814;2024-02-23T01:07:27;10.30;;;4.80;;
66270;SDS011;53063;39.614;8.814;2024-02-23T01:09:53;10.00;;;4.35;;
66270;SDS011;53063;39.614;8.814;2024-02-23T01:12:19;10.52;;;3.97;;
66270;SDS011;53063;39.614;8.814;2024-02-23T01:14:45;13.02;;;5.05;;
66270;SDS011;53063;39.614;8.814;2024-02-23T01:17:13;11.38;;;4.25;;
66270;SDS011;53063;39.614;8.814;2024-02-23T01:19:43;13.10;;;4.55;;
66270;SDS011;53063;39.614;8.814;2024-02-23T01:22:10;7.05;;;3.75;;
66270;SDS011;53063;39.614;8.814;2024-02-23T01:24:36;13.60;;;4.47;;
66270;SDS011;53063;39.614;8.814;2024-02-23T01:27:02;11.43;;;3.90;;
66270;SDS011;53063;39.614;8.814;2024-02-23T01:29:28;7.85;;;2.83;;
66270;SDS011;53063;39.614;8.814;2024-02-23T01:31:54;10.93;;;3.40;;
66270;SDS011;53063;39.614;8.814;2024-02-23T01:34:20;6.78;;;3.42;;
66270;SDS011;53063;39.614;8.814;2024-02-23T01:36:47;8.50;;;4.03;;
66270;SDS011;53063;39.614;8.814;2024-02-23T01:39:12;8.10;;;3.70;;
66270;SDS011;53063;39.614;8.814;2024-02-23T01:41:38;7.57;;;3.38;;
66270;SDS011;53063;39.614;8.814;2024-02-23T01:44:04;9.23;;;3.50;;
66270;SDS011;53063;39.614;8.814;2024-02-23T01:46:30;9.98;;;3.88;;
66270;SDS011;53063;39.614;8.814;2024-02-23T01:48:56;10.57;;;4.88;;
66270;SDS011;53063;39.614;8.814;2024-02-23T01:51:23;9.25;;;4.15;;
66270;SDS011;53063;39.614;8.814;2024-02-23T01:53:50;8.25;;;3.30;;
66270;SDS011;53063;39.614;8.814;2024-02-23T01:56:16;6.47;;;3.28;;
66270;SDS011;53063;39.614;8.814;2024-02-23T01:58:46;6.43;;;3.25;;
66270;SDS011;53063;39.614;8.814;2024-02-23T02:01:12;8.38;;;3.22;;
66270;SDS011;53063;39.614;8.814;2024-02-23T02:03:38;12.35;;;3.67;;
66270;SDS011;53063;39.614;8.814;2024-02-23T02:06:09;5.30;;;3.33;;
66270;SDS011;53063;39.614;8.814;2024-02-23T02:08:35;8.40;;;3.58;;
66270;SDS011;53063;39.614;8.814;2024-02-23T02:11:01;7.20;;;3.20;;
66270;SDS011;53063;39.614;8.814;2024-02-23T02:13:28;14.88;;;4.43;;
66270;SDS011;53063;39.614;8.814;2024-02-23T02:15:55;8.95;;;3.58;;
66270;SDS011;53063;39.614;8.814;2024-02-23T02:18:27;6.30;;;3.42;;
66270;SDS011;53063;39.614;8.814;2024-02-23T02:20:56;7.20;;;2.92;;
66270;SDS011;53063;39.614;8.814;2024-02-23T02:23:22;7.22;;;3.40;;
66270;SDS011;53063;39.614;8.814;2024-02-23T02:25:55;6.55;;;3.25;;
66270;SDS011;53063;39.614;8.814;2024-02-23T02:28:23;6.82;;;3.20;;
66270;SDS011;53063;39.614;8.814;2024-02-23T02:30:50;7.10;;;3.03;;
66270;SDS011;53063;39.614;8.814;2024-02-23T02:33:16;7.95;;;3.20;;
66270;SDS011;53063;39.614;8.814;2024-02-23T02:35:42;9.30;;;3.50;;
66270;SDS011;53063;39.614;8.814;2024-02-23T02:38:08;6.80;;;2.75;;
66270;SDS011;53063;39.614;8.814;2024-02-23T02:40:35;6.97;;;2.83;;
66270;SDS011;53063;39.614;8.814;2024-02-23T02:43:01;5.45;;;3.03;;
66270;SDS011;53063;39.614;8.814;2024-02-23T02:45:27;6.88;;;3.33;;
66270;SDS011;53063;39.614;8.814;2024-02-23T02:47:52;6.85;;;2.70;;
66270;SDS011;53063;39.614;8.814;2024-02-23T02:50:18;7.53;;;3.03;;
66270;SDS011;53063;39.614;8.814;2024-02-23T02:52:44;7.28;;;2.65;;
66270;SDS011;53063;39.614;8.814;2024-02-23T02:55:10;6.55;;;2.78;;
66270;SDS011;53063;39.614;8.814;2024-02-23T02:57:36;6.30;;;3.28;;
66270;SDS011;53063;39.614;8.814;2024-02-23T03:00:05;7.90;;;2.42;;
66270;SDS011;53063;39.614;8.814;2024-02-23T03:02:35;7.20;;;2.72;;
66270;SDS011;53063;39.614;8.814;2024-02-23T03:05:00;10.77;;;3.22;;
66270;SDS011;53063;39.614;8.814;2024-02-23T03:07:26;6.72;;;2.92;;
66270;SDS011;53063;39.614;8.814;2024-02-23T03:09:52;7.28;;;2.90;;
66270;SDS011;53063;39.614;8.814;2024-02-23T03:12:19;6.00;;;2.50;;
66270;SDS011;53063;39.614;8.814;2024-02-23T03:14:45;4.97;;;2.63;;
66270;SDS011;53063;39.614;8.814;2024-02-23T03:17:11;4.50;;;2.67;;
66270;SDS011;53063;39.614;8.814;2024-02-23T03:19:37;6.35;;;2.65;;
66270;SDS011;53063;39.614;8.814;2024-02-23T03:22:04;5.22;;;2.50;;
66270;SDS011;53063;39.614;8.814;2024-02-23T03:24:30;6.55;;;2.55;;
66270;SDS011;53063;39.614;8.814;2024-02-23T03:26:56;4.95;;;2.80;;
66270;SDS011;53063;39.614;8.814;2024-02-23T03:29:22;3.60;;;2.55;;
66270;SDS011;53063;39.614;8.814;2024-02-23T03:31:55;7.32;;;3.38;;
66270;SDS011;53063;39.614;8.814;2024-02-23T03:34:21;7.40;;;2.70;;
66270;SDS011;53063;39.614;8.814;2024-02-23T03:36:47;5.03;;;2.50;;
66270;SDS011;53063;39.614;8.814;2024-02-23T03:39:13;6.30;;;3.45;;
66270;SDS011;53063;39.614;8.814;2024-02-23T03:41:39;4.35;;;2.35;;
66270;SDS011;53063;39.614;8.814;2024-02-23T03:44:05;6.03;;;2.55;;
66270;SDS011;53063;39.614;8.814;2024-02-23T03:46:31;8.25;;;2.92;;
66270;SDS011;53063;39.614;8.814;2024-02-23T03:48:58;8.13;;;3.60;;
66270;SDS011;53063;39.614;8.814;2024-02-23T03:51:24;5.90;;;2.97;;
66270;SDS011;53063;39.614;8.814;2024-02-23T03:53:50;6.88;;;3.33;;
66270;SDS011;53063;39.614;8.814;2024-02-23T03:56:16;5.75;;;3.33;;
66270;SDS011;53063;39.614;8.814;2024-02-23T03:58:42;11.63;;;3.42;;
66270;SDS011;53063;39.614;8.814;2024-02-23T04:01:07;8.88;;;3.25;;
66270;SDS011;53063;39.614;8.814;2024-02-23T04:03:33;4.90;;;2.90;;
66270;SDS011;53063;39.614;8.814;2024-02-23T04:06:02;10.38;;;3.70;;
66270;SDS011;53063;39.614;8.814;2024-02-23T04:08:28;6.55;;;2.90;;
66270;SDS011;53063;39.614;8.814;2024-02-23T04:10:54;6.38;;;2.92;;
66270;SDS011;53063;39.614;8.814;2024-02-23T04:13:20;11.32;;;3.10;;
66270;SDS011;53063;39.614;8.814;2024-02-23T04:15:46;8.70;;;2.97;;
66270;SDS011;53063;39.614;8.814;2024-02-23T04:18:12;7.10;;;3.30;;
66270;SDS011;53063;39.614;8.814;2024-02-23T04:20:38;7.82;;;3.30;;
66270;SDS011;53063;39.614;8.814;2024-02-23T04:23:04;5.88;;;3.47;;
66270;SDS011;53063;39.614;8.814;2024-02-23T04:25:30;8.13;;;3.28;;
66270;SDS011;53063;39.614;8.814;2024-02-23T04:27:56;5.25;;;2.90;;
66270;SDS011;53063;39.614;8.814;2024-02-23T04:30:22;6.38;;;3.35;;
66270;SDS011;53063;39.614;8.814;2024-02-23T04:32:48;11.85;;;3.38;;
66270;SDS011;53063;39.614;8.814;2024-02-23T04:35:14;9.40;;;2.88;;
66270;SDS011;53063;39.614;8.814;2024-02-23T04:37:43;5.97;;;2.85;;
66270;SDS011;53063;39.614;8.814;2024-02-23T04:40:10;8.52;;;3.10;;
66270;SDS011;53063;39.614;8.814;2024-02-23T04:42:37;7.93;;;2.78;;
66270;SDS011;53063;39.614;8.814;2024-02-23T04:45:04;8.57;;;3.00;;
66270;SDS011;53063;39.614;8.814;2024-02-23T04:47:30;10.00;;;3.00;;
66270;SDS011;53063;39.614;8.814;2024-02-23T04:49:56;7.60;;;2.90;;
66270;SDS011;53063;39.614;8.814;2024-02-23T04:52:22;7.32;;;2.83;;
66270;SDS011;53063;39.614;8.814;2024-02-23T04:54:48;5.25;;;2.70;;
66270;SDS011;53063;39.614;8.814;2024-02-23T04:57:14;12.32;;;2.90;;
66270;SDS011;53063;39.614;8.814;2024-02-23T04:59:40;13.68;;;3.13;;
66270;SDS011;53063;39.614;8.814;2024-02-23T05:02:05;8.48;;;2.90;;
66270;SDS011;53063;39.614;8.814;2024-02-23T05:04:31;6.47;;;2.45;;
66270;SDS011;53063;39.614;8.814;2024-02-23T05:06:58;6.03;;;2.60;;
66270;SDS011;53063;39.614;8.814;2024-02-23T05:09:24;9.63;;;3.13;;
66270;SDS011;53063;39.614;8.814;2024-02-23T05:11:50;6.75;;;2.95;;
66270;SDS011;53063;39.614;8.814;2024-02-23T05:14:16;9.60;;;2.90;;
66270;SDS011;53063;39.614;8.814;2024-02-23T05:16:41;5.15;;;2.40;;
66270;SDS011;53063;39.614;8.814;2024-02-23T05:19:07;12.95;;;3.53;;
66270;SDS011;53063;39.614;8.814;2024-02-23T05:21:33;9.57;;;2.72;;
66270;SDS011;53063;39.614;8.814;2024-02-23T05:23:59;8.60;;;2.60;;
66270;SDS011;53063;39.614;8.814;2024-02-23T05:26:25;5.18;;;2.20;;
66270;SDS011;53063;39.614;8.814;2024-02-23T05:28:51;4.40;;;2.83;;
66270;SDS011;53063;39.614;8.814;2024-02-23T05:31:17;4.30;;;2.50;;
66270;SDS011;53063;39.614;8.814;2024-02-23T05:33:43;7.43;;;2.95;;
66270;SDS011;53063;39.614;8.814;2024-02-23T05:36:09;7.97;;;3.30;;
66270;SDS011;53063;39.614;8.814;2024-02-23T05:38:35;6.85;;;2.70;;
66270;SDS011;53063;39.614;8.814;2024-02-23T05:41:01;7.82;;;2.97;;
66270;SDS011;53063;39.614;8.814;2024-02-23T05:43:26;6.78;;;3.15;;
66270;SDS011;53063;39.614;8.814;2024-02-23T05:45:52;8.65;;;3.42;;
66270;SDS011;53063;39.614;8.814;2024-02-23T05:48:22;4.97;;;2.92;;
66270;SDS011;53063;39.614;8.814;2024-02-23T05:50:48;11.88;;;3.17;;
66270;SDS011;53063;39.614;8.814;2024-02-23T05:53:14;9.43;;;3.22;;
66270;SDS011;53063;39.614;8.814;2024-02-23T05:55:40;4.65;;;2.72;;
66270;SDS011;53063;39.614;8.814;2024-02-23T05:58:05;7.63;;;3.47;;
66270;SDS011;53063;39.614;8.814;2024-02-23T06:00:31;7.40;;;3.13;;
66270;SDS011;53063;39.614;8.814;2024-02-23T06:02:57;9.35;;;3.67;;
66270;SDS011;53063;39.614;8.814;2024-02-23T06:05:23;11.07;;;4.65;;
66270;SDS011;53063;39.614;8.814;2024-02-23T06:07:49;15.70;;;5.30;;
66270;SDS011;53063;39.614;8.814;2024-02-23T06:10:15;11.55;;;5.03;;
66270;SDS011;53063;39.614;8.814;2024-02-23T06:12:41;8.55;;;4.53;;
66270;SDS011;53063;39.614;8.814;2024-02-23T06:15:07;7.70;;;3.70;;
66270;SDS011;53063;39.614;8.814;2024-02-23T06:17:33;9.07;;;3.47;;
66270;SDS011;53063;39.614;8.814;2024-02-23T06:19:59;6.68;;;3.63;;
66270;SDS011;53063;39.614;8.814;2024-02-23T06:22:25;9.57;;;4.63;;
66270;SDS011;53063;39.614;8.814;2024-02-23T06:24:51;8.80;;;4.80;;
66270;SDS011;53063;39.614;8.814;2024-02-23T06:27:17;17.00;;;9.95;;
66270;SDS011;53063;39.614;8.814;2024-02-23T06:29:43;63.83;;;39.10;;
66270;SDS011;53063;39.614;8.814;2024-02-23T06:32:08;18.75;;;12.98;;
66270;SDS011;53063;39.614;8.814;2024-02-23T06:34:34;18.83;;;11.43;;
66270;SDS011;53063;39.614;8.814;2024-02-23T06:37:00;95.60;;;46.63;;
66270;SDS011;53063;39.614;8.814;2024-02-23T06:39:26;264.00;;;109.10;;
66270;SDS011;53063;39.614;8.814;2024-02-23T06:41:52;161.75;;;70.38;;
66270;SDS011;53063;39.614;8.814;2024-02-23T06:44:18;48.45;;;23.92;;
66270;SDS011;53063;39.614;8.814;2024-02-23T06:46:44;20.17;;;10.40;;
66270;SDS011;53063;39.614;8.814;2024-02-23T06:49:10;14.50;;;7.13;;
66270;SDS011;53063;39.614;8.814;2024-02-23T06:51:36;13.63;;;6.90;;
66270;SDS011;53063;39.614;8.814;2024-02-23T06:54:03;31.60;;;16.52;;
66270;SDS011;53063;39.614;8.814;2024-02-23T06:56:29;22.08;;;10.07;;
66270;SDS011;53063;39.614;8.814;2024-02-23T06:58:55;36.20;;;15.38;;
66270;SDS011;53063;39.614;8.814;2024-02-23T07:01:20;35.22;;;16.65;;
66270;SDS011;53063;39.614;8.814;2024-02-23T07:03:46;28.42;;;12.18;;
66270;SDS011;53063;39.614;8.814;2024-02-23T07:06:16;17.90;;;8.18;;
66270;SDS011;53063;39.614;8.814;2024-02-23T07:08:43;34.55;;;17.77;;
66270;SDS011;53063;39.614;8.814;2024-02-23T07:11:10;25.63;;;14.68;;
66270;SDS011;53063;39.614;8.814;2024-02-23T07:13:36;16.80;;;9.40;;
66270;SDS011;53063;39.614;8.814;2024-02-23T07:16:02;10.55;;;7.07;;
66270;SDS011;53063;39.614;8.814;2024-02-23T07:18:28;16.75;;;6.22;;
66270;SDS011;53063;39.614;8.814;2024-02-23T07:20:54;14.10;;;5.85;;
66270;SDS011;53063;39.614;8.814;2024-02-23T07:23:20;10.20;;;3.97;;
66270;SDS011;53063;39.614;8.814;2024-02-23T07:25:47;15.52;;;7.80;;
66270;SDS011;53063;39.614;8.814;2024-02-23T07:28:16;14.05;;;5.68;;
66270;SDS011;53063;39.614;8.814;2024-02-23T07:30:45;13.50;;;4.38;;
66270;SDS011;53063;39.614;8.814;2024-02-23T07:33:11;16.73;;;3.63;;
66270;SDS011;53063;39.614;8.814;2024-02-23T07:35:37;13.23;;;3.97;;
66270;SDS011;53063;39.614;8.814;2024-02-23T07:38:03;7.10;;;4.07;;
66270;SDS011;53063;39.614;8.814;2024-02-23T07:40:29;24.70;;;11.40;;
66270;SDS011;53063;39.614;8.814;2024-02-23T07:42:57;9.93;;;4.50;;
66270;SDS011;53063;39.614;8.814;2024-02-23T07:45:23;8.77;;;3.53;;
66270;SDS011;53063;39.614;8.814;2024-02-23T07:47:48;43.72;;;17.73;;
66270;SDS011;53063;39.614;8.814;2024-02-23T07:50:14;20.55;;;7.88;;
66270;SDS011;53063;39.614;8.814;2024-02-23T07:52:41;14.65;;;5.95;;
66270;SDS011;53063;39.614;8.814;2024-02-23T07:55:07;9.50;;;4.32;;
66270;SDS011;53063;39.614;8.814;2024-02-23T07:57:33;10.70;;;3.72;;
66270;SDS011;53063;39.614;8.814;2024-02-23T07:59:59;14.15;;;4.57;;
66270;SDS011;53063;39.614;8.814;2024-02-23T08:02:26;10.80;;;4.10;;
66270;SDS011;53063;39.614;8.814;2024-02-23T08:04:52;18.13;;;5.32;;
66270;SDS011;53063;39.614;8.814;2024-02-23T08:07:17;13.55;;;3.40;;
66270;SDS011;53063;39.614;8.814;2024-02-23T08:09:43;15.00;;;3.90;;
66270;SDS011;53063;39.614;8.814;2024-02-23T08:12:09;14.35;;;3.13;;
66270;SDS011;53063;39.614;8.814;2024-02-23T08:14:36;12.30;;;2.92;;
66270;SDS011;53063;39.614;8.814;2024-02-23T08:17:02;5.85;;;2.05;;
66270;SDS011;53063;39.614;8.814;2024-02-23T08:19:28;7.80;;;2.72;;
66270;SDS011;53063;39.614;8.814;2024-02-23T08:21:54;9.18;;;2.95;;
66270;SDS011;53063;39.614;8.814;2024-02-23T08:24:20;13.25;;;3.00;;
66270;SDS011;53063;39.614;8.814;2024-02-23T08:26:46;11.55;;;2.70;;
66270;SDS011;53063;39.614;8.814;2024-02-23T08:29:12;14.57;;;2.70;;
66270;SDS011;53063;39.614;8.814;2024-02-23T08:31:38;9.55;;;3.90;;
66270;SDS011;53063;39.614;8.814;2024-02-23T08:34:03;11.88;;;2.92;;
66270;SDS011;53063;39.614;8.814;2024-02-23T08:36:29;11.32;;;2.47;;
66270;SDS011;53063;39.614;8.814;2024-02-23T08:38:55;9.65;;;2.92;;
66270;SDS011;53063;39.614;8.814;2024-02-23T08:41:21;19.73;;;3.53;;
66270;SDS011;53063;39.614;8.814;2024-02-23T08:43:47;9.95;;;3.72;;
66270;SDS011;53063;39.614;8.814;2024-02-23T08:46:13;15.63;;;3.05;;
66270;SDS011;53063;39.614;8.814;2024-02-23T08:48:39;21.10;;;5.10;;
66270;SDS011;53063;39.614;8.814;2024-02-23T08:51:05;18.15;;;3.63;;
66270;SDS011;53063;39.614;8.814;2024-02-23T08:53:30;20.98;;;3.72;;
66270;SDS011;53063;39.614;8.814;2024-02-23T08:55:56;18.60;;;2.90;;
66270;SDS011;53063;39.614;8.814;2024-02-23T08:58:22;18.02;;;3.20;;
66270;SDS011;53063;39.614;8.814;2024-02-23T09:00:48;14.88;;;2.78;;
66270;SDS011;53063;39.614;8.814;2024-02-23T09:03:14;13.85;;;3.28;;
66270;SDS011;53063;39.614;8.814;2024-02-23T09:05:40;22.98;;;4.15;;
66270;SDS011;53063;39.614;8.814;2024-02-23T09:08:06;23.52;;;5.70;;
66270;SDS011;53063;39.614;8.814;2024-02-23T09:10:32;19.58;;;3.63;;
66270;SDS011;53063;39.614;8.814;2024-02-23T09:12:58;16.88;;;3.45;;
66270;SDS011;53063;39.614;8.814;2024-02-23T09:15:23;16.63;;;3.28;;
66270;SDS011;53063;39.614;8.814;2024-02-23T09:17:49;16.65;;;3.05;;
66270;SDS011;53063;39.614;8.814;2024-02-23T09:20:16;13.05;;;3.33;;
66270;SDS011;53063;39.614;8.814;2024-02-23T09:22:42;20.20;;;3.58;;
66270;SDS011;53063;39.614;8.814;2024-02-23T09:25:07;16.25;;;3.35;;
66270;SDS011;53063;39.614;8.814;2024-02-23T09:27:34;14.75;;;3.42;;
66270;SDS011;53063;39.614;8.814;2024-02-23T09:30:04;14.93;;;3.20;;
66270;SDS011;53063;39.614;8.814;2024-02-23T09:32:31;25.00;;;4.55;;
66270;SDS011;53063;39.614;8.814;2024-02-23T09:34:57;21.33;;;3.42;;
66270;SDS011;53063;39.614;8.814;2024-02-23T09:37:23;12.20;;;2.85;;
66270;SDS011;53063;39.614;8.814;2024-02-23T09:39:49;12.27;;;2.80;;
66270;SDS011;53063;39.614;8.814;2024-02-23T09:42:15;17.17;;;3.75;;
66270;SDS011;53063;39.614;8.814;2024-02-23T09:44:43;16.75;;;3.05;;
66270;SDS011;53063;39.614;8.814;2024-02-23T09:47:11;14.18;;;2.78;;
66270;SDS011;53063;39.614;8.814;2024-02-23T09:49:39;18.48;;;2.88;;
66270;SDS011;53063;39.614;8.814;2024-02-23T09:52:08;22.83;;;4.97;;
66270;SDS011;53063;39.614;8.814;2024-02-23T09:54:36;17.38;;;2.92;;
66270;SDS011;53063;39.614;8.814;2024-02-23T09:57:04;16.17;;;2.95;;
66270;SDS011;53063;39.614;8.814;2024-02-23T09:59:34;16.27;;;3.47;;
66270;SDS011;53063;39.614;8.814;2024-02-23T10:02:01;17.75;;;2.78;;
66270;SDS011;53063;39.614;8.814;2024-02-23T10:04:31;14.57;;;3.08;;
66270;SDS011;53063;39.614;8.814;2024-02-23T10:06:57;16.20;;;2.88;;
66270;SDS011;53063;39.614;8.814;2024-02-23T10:09:23;20.65;;;4.35;;
66270;SDS011;53063;39.614;8.814;2024-02-23T10:11:53;19.50;;;4.25;;
66270;SDS011;53063;39.614;8.814;2024-02-23T10:14:20;19.17;;;3.75;;
66270;SDS011;53063;39.614;8.814;2024-02-23T10:16:46;16.55;;;2.92;;
66270;SDS011;53063;39.614;8.814;2024-02-23T10:19:12;21.50;;;4.00;;
66270;SDS011;53063;39.614;8.814;2024-02-23T10:21:38;30.77;;;4.65;;
66270;SDS011;53063;39.614;8.814;2024-02-23T10:24:07;18.48;;;3.40;;
66270;SDS011;53063;39.614;8.814;2024-02-23T10:26:32;18.67;;;3.80;;
66270;SDS011;53063;39.614;8.814;2024-02-23T10:28:59;16.08;;;3.30;;
66270;SDS011;53063;39.614;8.814;2024-02-23T10:31:24;21.23;;;4.53;;
66270;SDS011;53063;39.614;8.814;2024-02-23T10:33:50;16.83;;;3.17;;
66270;SDS011;53063;39.614;8.814;2024-02-23T10:36:18;23.85;;;3.97;;
66270;SDS011;53063;39.614;8.814;2024-02-23T10:38:45;17.25;;;3.55;;
66270;SDS011;53063;39.614;8.814;2024-02-23T10:41:14;16.33;;;3.00;;
66270;SDS011;53063;39.614;8.814;2024-02-23T10:43:47;16.15;;;3.05;;
66270;SDS011;53063;39.614;8.814;2024-02-23T10:46:13;19.02;;;3.60;;
66270;SDS011;53063;39.614;8.814;2024-02-23T10:48:41;17.52;;;3.05;;
66270;SDS011;53063;39.614;8.814;2024-02-23T10:51:08;16.48;;;2.85;;
66270;SDS011;53063;39.614;8.814;2024-02-23T10:53:38;26.95;;;3.80;;
66270;SDS011;53063;39.614;8.814;2024-02-23T10:56:05;13.48;;;2.95;;
66270;SDS011;53063;39.614;8.814;2024-02-23T10:58:33;17.23;;;3.45;;
66270;SDS011;53063;39.614;8.814;2024-02-23T11:00:59;15.60;;;3.08;;
66270;SDS011;53063;39.614;8.814;2024-02-23T11:03:30;17.35;;;3.17;;
66270;SDS011;53063;39.614;8.814;2024-02-23T11:06:01;19.08;;;3.30;;
66270;SDS011;53063;39.614;8.814;2024-02-23T11:08:28;14.75;;;3.45;;
66270;SDS011;53063;39.614;8.814;2024-02-23T11:10:54;16.92;;;2.63;;
66270;SDS011;53063;39.614;8.814;2024-02-23T11:13:38;15.85;;;3.38;;
66270;SDS011;53063;39.614;8.814;2024-02-23T11:16:05;21.25;;;3.55;;
66270;SDS011;53063;39.614;8.814;2024-02-23T11:18:36;12.80;;;2.67;;
66270;SDS011;53063;39.614;8.814;2024-02-23T11:21:04;15.50;;;2.88;;
66270;SDS011;53063;39.614;8.814;2024-02-23T11:23:43;15.40;;;3.17;;
66270;SDS011;53063;39.614;8.814;2024-02-23T11:26:10;21.20;;;3.53;;
66270;SDS011;53063;39.614;8.814;2024-02-23T11:28:49;12.15;;;3.10;;
66270;SDS011;53063;39.614;8.814;2024-02-23T11:31:19;13.02;;;2.60;;
66270;SDS011;53063;39.614;8.814;2024-02-23T11:33:52;14.23;;;2.75;;
66270;SDS011;53063;39.614;8.814;2024-02-23T11:36:29;14.60;;;2.97;;
66270;SDS011;53063;39.614;8.814;2024-02-23T11:38:58;22.80;;;3.17;;
66270;SDS011;53063;39.614;8.814;2024-02-23T11:41:25;12.93;;;3.30;;
66270;SDS011;53063;39.614;8.814;2024-02-23T11:43:53;16.60;;;3.33;;
66270;SDS011;53063;39.614;8.814;2024-02-23T11:46:20;14.70;;;3.65;;
66270;SDS011;53063;39.614;8.814;2024-02-23T11:48:47;18.33;;;3.42;;
66270;SDS011;53063;39.614;8.814;2024-02-23T11:51:23;22.23;;;2.92;;
66270;SDS011;53063;39.614;8.814;2024-02-23T11:53:52;17.67;;;2.97;;
66270;SDS011;53063;39.614;8.814;2024-02-23T11:56:18;22.00;;;3.38;;
66270;SDS011;53063;39.614;8.814;2024-02-23T11:58:45;20.83;;;4.20;;
66270;SDS011;53063;39.614;8.814;2024-02-23T12:01:11;15.77;;;3.05;;
66270;SDS011;53063;39.614;8.814;2024-02-23T12:03:37;20.08;;;3.50;;
66270;SDS011;53063;39.614;8.814;2024-02-23T12:06:04;12.90;;;3.28;;
66270;SDS011;53063;39.614;8.814;2024-02-23T12:08:32;22.38;;;4.38;;
66270;SDS011;53063;39.614;8.814;2024-02-23T12:11:06;26.52;;;3.38;;
66270;SDS011;53063;39.614;8.814;2024-02-23T12:13:36;10.80;;;3.25;;
66270;SDS011;53063;39.614;8.814;2024-02-23T12:16:02;12.75;;;2.35;;
66270;SDS011;53063;39.614;8.814;2024-02-23T12:18:29;10.07;;;2.65;;
66270;SDS011;53063;39.614;8.814;2024-02-23T12:21:01;17.75;;;2.75;;
66270;SDS011;53063;39.614;8.814;2024-02-23T12:26:10;12.98;;;2.58;;
66270;SDS011;53063;39.614;8.814;2024-02-23T12:28:38;10.65;;;2.22;;
66270;SDS011;53063;39.614;8.814;2024-02-23T12:31:05;12.55;;;2.45;;
66270;SDS011;53063;39.614;8.814;2024-02-23T12:33:32;11.25;;;2.20;;
66270;SDS011;53063;39.614;8.814;2024-02-23T12:35:59;12.50;;;1.80;;
66270;SDS011;53063;39.614;8.814;2024-02-23T12:38:26;12.20;;;2.28;;
66270;SDS011;53063;39.614;8.814;2024-02-23T12:40:52;8.68;;;1.88;;
66270;SDS011;53063;39.614;8.814;2024-02-23T12:43:18;8.38;;;1.83;;
66270;SDS011;53063;39.614;8.814;2024-02-23T12:45:49;8.45;;;1.60;;
66270;SDS011;53063;39.614;8.814;2024-02-23T12:48:16;14.55;;;1.75;;
66270;SDS011;53063;39.614;8.814;2024-02-23T12:50:43;12.48;;;1.83;;
66270;SDS011;53063;39.614;8.814;2024-02-23T12:53:29;6.30;;;1.45;;
66270;SDS011;53063;39.614;8.814;2024-02-23T12:56:07;9.60;;;1.50;;
66270;SDS011;53063;39.614;8.814;2024-02-23T12:58:35;12.48;;;1.20;;
66270;SDS011;53063;39.614;8.814;2024-02-23T13:01:01;13.70;;;1.88;;
66270;SDS011;53063;39.614;8.814;2024-02-23T13:03:27;13.32;;;1.60;;
66270;SDS011;53063;39.614;8.814;2024-02-23T13:05:54;11.52;;;1.77;;
66270;SDS011;53063;39.614;8.814;2024-02-23T13:08:21;7.55;;;1.75;;
66270;SDS011;53063;39.614;8.814;2024-02-23T13:10:48;12.85;;;1.83;;
66270;SDS011;53063;39.614;8.814;2024-02-23T13:13:18;7.05;;;1.33;;
66270;SDS011;53063;39.614;8.814;2024-02-23T13:15:47;10.70;;;1.80;;
66270;SDS011;53063;39.614;8.814;2024-02-23T13:18:16;10.27;;;2.35;;
66270;SDS011;53063;39.614;8.814;2024-02-23T13:20:42;8.95;;;1.90;;
66270;SDS011;53063;39.614;8.814;2024-02-23T13:23:09;7.03;;;1.63;;
66270;SDS011;53063;39.614;8.814;2024-02-23T13:25:36;8.30;;;1.38;;
66270;SDS011;53063;39.614;8.814;2024-02-23T13:28:03;8.65;;;1.15;;
66270;SDS011;53063;39.614;8.814;2024-02-23T13:30:30;9.57;;;1.42;;
66270;SDS011;53063;39.614;8.814;2024-02-23T13:32:56;11.70;;;1.20;;
66270;SDS011;53063;39.614;8.814;2024-02-23T13:35:22;6.05;;;1.23;;
66270;SDS011;53063;39.614;8.814;2024-02-23T13:37:48;14.10;;;2.05;;
66270;SDS011;53063;39.614;8.814;2024-02-23T13:40:14;9.65;;;1.60;;
66270;SDS011;53063;39.614;8.814;2024-02-23T13:42:40;9.45;;;1.50;;
66270;SDS011;53063;39.614;8.814;2024-02-23T13:45:07;6.13;;;1.15;;
66270;SDS011;53063;39.614;8.814;2024-02-23T13:47:34;8.73;;;1.42;;
66270;SDS011;53063;39.614;8.814;2024-02-23T13:50:03;10.40;;;1.65;;
66270;SDS011;53063;39.614;8.814;2024-02-23T13:52:29;7.07;;;1.95;;
66270;SDS011;53063;39.614;8.814;2024-02-23T13:54:55;7.50;;;1.63;;
66270;SDS011;53063;39.614;8.814;2024-02-23T13:57:21;9.20;;;1.70;;
66270;SDS011;53063;39.614;8.814;2024-02-23T13:59:47;8.63;;;1.55;;
66270;SDS011;53063;39.614;8.814;2024-02-23T14:02:13;6.18;;;1.20;;
66270;SDS011;53063;39.614;8.814;2024-02-23T14:04:40;7.13;;;1.25;;
66270;SDS011;53063;39.614;8.814;2024-02-23T14:07:06;5.28;;;1.17;;
66270;SDS011;53063;39.614;8.814;2024-02-23T14:09:32;8.48;;;0.82;;
66270;SDS011;53063;39.614;8.814;2024-02-23T14:11:59;10.48;;;2.15;;
66270;SDS011;53063;39.614;8.814;2024-02-23T14:14:25;6.47;;;1.63;;
66270;SDS011;53063;39.614;8.814;2024-02-23T14:16:51;8.07;;;2.13;;
66270;SDS011;53063;39.614;8.814;2024-02-23T14:19:17;7.72;;;1.63;;
66270;SDS011;53063;39.614;8.814;2024-02-23T14:21:45;9.80;;;1.60;;
66270;SDS011;53063;39.614;8.814;2024-02-23T14:24:13;8.10;;;1.75;;
66270;SDS011;53063;39.614;8.814;2024-02-23T14:26:39;8.27;;;1.95;;
66270;SDS011;53063;39.614;8.814;2024-02-23T14:29:05;8.98;;;2.55;;
66270;SDS011;53063;39.614;8.814;2024-02-23T14:31:31;10.77;;;1.85;;
66270;SDS011;53063;39.614;8.814;2024-02-23T14:33:57;12.48;;;3.10;;
66270;SDS011;53063;39.614;8.814;2024-02-23T14:36:23;9.32;;;1.90;;
66270;SDS011;53063;39.614;8.814;2024-02-23T14:38:49;4.95;;;1.60;;
66270;SDS011;53063;39.614;8.814;2024-02-23T14:41:15;9.05;;;2.10;;